sensor_id;sensor_type;location;lat;lon;timestamp;P1;durP1;ratioP1;P2;durP2;ratioP2
17773;SDS011;9011;33.236;-97.118;2023-02-19T00:01:49;5.47;;;1.90;;
17773;SDS011;9011;33.236;-97.118;2023-02-19T00:04:19;2.67;;;1.87;;
17773;SDS011;9011;33.236;-97.118;2023-02-19T00:06:48;2.47;;;2.23;;
17773;SDS011;9011;33.236;-97.118;2023-02-19T00:09:17;2.07;;;1.87;;
17773;SDS011;9011;33.236;-97.118;2023-02-19T00:11:46;3.33;;;2.27;;
17773;SDS011;9011;33.236;-97.118;2023-02-19T00:14:15;3.00;;;2.03;;
17773;SDS011;9011;33.236;-97.118;2023-02-19T00:16:45;2.30;;;2.10;;
17773;SDS011;9011;33.236;-97.118;2023-02-19T00:19:16;4.97;;;2.00;;
17773;SDS011;9011;33.236;-97.118;2023-02-19T00:21:45;3.43;;;2.00;;
17773;SDS011;9011;33.236;-97.118;2023-02-19T00:24:14;2.60;;;2.23;;
17773;SDS011;9011;33.236;-97.118;2023-02-19T00:26:43;2.40;;;2.03;;
17773;SDS011;9011;33.236;-97.118;2023-02-19T00:29:12;5.13;;;2.60;;
17773;SDS011;9011;33.236;-97.118;2023-02-19T00:31:42;5.77;;;2.40;;
17773;SDS011;9011;33.236;-97.118;2023-02-19T00:34:11;2.50;;;2.13;;
17773;SDS011;9011;33.236;-97.118;2023-02-19T00:36:42;2.57;;;2.20;;
17773;SDS011;9011;33.236;-97.118;2023-02-19T00:39:11;3.93;;;2.10;;
17773;SDS011;9011;33.236;-97.118;2023-02-19T00:41:42;2.10;;;1.90;;
17773;SDS011;9011;33.236;-97.118;2023-02-19T00:44:11;2.43;;;2.23;;
17773;SDS011;9011;33.236;-97.118;2023-02-19T00:46:40;3.27;;;2.13;;
17773;SDS011;9011;33.236;-97.118;2023-02-19T00:49:12;3.10;;;1.87;;
17773;SDS011;9011;33.236;-97.118;2023-02-19T00:51:44;2.97;;;2.30;;
17773;SDS011;9011;33.236;-97.118;2023-02-19T00:54:13;1.77;;;1.67;;
17773;SDS011;9011;33.236;-97.118;2023-02-19T00:56:41;2.70;;;1.90;;
17773;SDS011;9011;33.236;-97.118;2023-02-19T00:59:10;3.33;;;2.30;;
17773;SDS011;9011;33.236;-97.118;2023-02-19T01:01:38;3.07;;;2.13;;
17773;SDS011;9011;33.236;-97.118;2023-02-19T01:04:08;5.13;;;2.30;;
17773;SDS011;9011;33.236;-97.118;2023-02-19T01:06:37;2.73;;;2.20;;
17773;SDS011;9011;33.236;-97.118;2023-02-19T01:09:07;2.23;;;2.03;;
17773;SDS011;9011;33.236;-97.118;2023-02-19T01:11:35;3.97;;;2.27;;
17773;SDS011;9011;33.236;-97.118;2023-02-19T01:14:03;3.23;;;2.03;;
17773;SDS011;9011;33.236;-97.118;2023-02-19T01:16:32;2.47;;;1.93;;
17773;SDS011;9011;33.236;-97.118;2023-02-19T01:19:00;3.87;;;2.00;;
17773;SDS011;9011;33.236;-97.118;2023-02-19T01:21:29;3.03;;;2.23;;
17773;SDS011;9011;33.236;-97.118;2023-02-19T01:23:58;2.97;;;2.30;;
17773;SDS011;9011;33.236;-97.118;2023-02-19T01:26:29;3.20;;;2.80;;
17773;SDS011;9011;33.236;-97.118;2023-02-19T01:28:58;3.30;;;2.07;;
17773;SDS011;9011;33.236;-97.118;2023-02-19T01:31:27;2.80;;;2.60;;
17773;SDS011;9011;33.236;-97.118;2023-02-19T01:33:57;2.37;;;2.17;;
17773;SDS011;9011;33.236;-97.118;2023-02-19T01:36:26;2.47;;;2.27;;
17773;SDS011;9011;33.236;-97.118;2023-02-19T01:38:55;2.70;;;2.30;;
17773;SDS011;9011;33.236;-97.118;2023-02-19T01:41:30;3.57;;;2.23;;
17773;SDS011;9011;33.236;-97.118;2023-02-19T01:44:01;3.67;;;2.10;;
17773;SDS011;9011;33.236;-97.118;2023-02-19T01:46:32;5.07;;;2.40;;
17773;SDS011;9011;33.236;-97.118;2023-02-19T01:49:02;1.93;;;1.83;;
17773;SDS011;9011;33.236;-97.118;2023-02-19T01:51:34;2.50;;;2.20;;
17773;SDS011;9011;33.236;-97.118;2023-02-19T01:54:18;2.83;;;2.20;;
17773;SDS011;9011;33.236;-97.118;2023-02-19T01:56:52;3.17;;;2.10;;
17773;SDS011;9011;33.236;-97.118;2023-02-19T01:59:21;3.40;;;2.53;;
17773;SDS011;9011;33.236;-97.118;2023-02-19T02:01:50;3.00;;;2.27;;
17773;SDS011;9011;33.236;-97.118;2023-02-19T02:04:18;2.50;;;2.20;;
17773;SDS011;9011;33.236;-97.118;2023-02-19T02:06:48;3.20;;;2.00;;
17773;SDS011;9011;33.236;-97.118;2023-02-19T02:09:19;3.77;;;2.10;;
17773;SDS011;9011;33.236;-97.118;2023-02-19T02:12:07;2.87;;;1.90;;
17773;SDS011;9011;33.236;-97.118;2023-02-19T02:14:37;2.77;;;1.70;;
17773;SDS011;9011;33.236;-97.118;2023-02-19T02:17:10;2.33;;;2.07;;
17773;SDS011;9011;33.236;-97.118;2023-02-19T02:19:53;3.20;;;2.00;;
17773;SDS011;9011;33.236;-97.118;2023-02-19T02:22:31;1.97;;;1.80;;
17773;SDS011;9011;33.236;-97.118;2023-02-19T02:25:24;4.03;;;1.80;;
17773;SDS011;9011;33.236;-97.118;2023-02-19T02:28:19;2.10;;;1.90;;
17773;SDS011;9011;33.236;-97.118;2023-02-19T02:31:02;2.73;;;2.07;;
17773;SDS011;9011;33.236;-97.118;2023-02-19T02:33:35;4.47;;;1.90;;
17773;SDS011;9011;33.236;-97.118;2023-02-19T02:36:07;4.63;;;2.00;;
17773;SDS011;9011;33.236;-97.118;2023-02-19T02:38:39;2.33;;;1.70;;
17773;SDS011;9011;33.236;-97.118;2023-02-19T02:41:11;3.10;;;1.80;;
17773;SDS011;9011;33.236;-97.118;2023-02-19T02:43:40;3.27;;;1.50;;
17773;SDS011;9011;33.236;-97.118;2023-02-19T02:46:11;4.17;;;1.87;;
17773;SDS011;9011;33.236;-97.118;2023-02-19T02:48:42;6.27;;;2.07;;
17773;SDS011;9011;33.236;-97.118;2023-02-19T02:51:19;4.00;;;2.20;;
17773;SDS011;9011;33.236;-97.118;2023-02-19T02:53:52;4.27;;;1.93;;
17773;SDS011;9011;33.236;-97.118;2023-02-19T02:56:40;3.03;;;2.10;;
17773;SDS011;9011;33.236;-97.118;2023-02-19T02:59:11;2.53;;;1.93;;
17773;SDS011;9011;33.236;-97.118;2023-02-19T03:01:42;3.37;;;1.97;;
17773;SDS011;9011;33.236;-97.118;2023-02-19T03:04:32;2.33;;;2.13;;
17773;SDS011;9011;33.236;-97.118;2023-02-19T03:07:27;3.40;;;2.33;;
17773;SDS011;9011;33.236;-97.118;2023-02-19T03:10:02;4.10;;;2.77;;
17773;SDS011;9011;33.236;-97.118;2023-02-19T03:12:34;4.27;;;2.47;;
17773;SDS011;9011;33.236;-97.118;2023-02-19T03:15:21;7.37;;;2.27;;
17773;SDS011;9011;33.236;-97.118;2023-02-19T03:18:09;4.03;;;1.77;;
17773;SDS011;9011;33.236;-97.118;2023-02-19T03:20:56;4.00;;;1.90;;
17773;SDS011;9011;33.236;-97.118;2023-02-19T03:23:26;3.47;;;2.30;;
17773;SDS011;9011;33.236;-97.118;2023-02-19T03:26:14;3.73;;;2.20;;
17773;SDS011;9011;33.236;-97.118;2023-02-19T03:28:46;3.00;;;2.33;;
17773;SDS011;9011;33.236;-97.118;2023-02-19T03:31:33;2.30;;;2.00;;
17773;SDS011;9011;33.236;-97.118;2023-02-19T03:34:07;2.43;;;2.20;;
17773;SDS011;9011;33.236;-97.118;2023-02-19T03:36:41;3.90;;;1.80;;
17773;SDS011;9011;33.236;-97.118;2023-02-19T03:39:13;2.73;;;2.07;;
17773;SDS011;9011;33.236;-97.118;2023-02-19T03:41:48;2.67;;;2.30;;
17773;SDS011;9011;33.236;-97.118;2023-02-19T03:44:24;3.17;;;2.10;;
17773;SDS011;9011;33.236;-97.118;2023-02-19T03:47:00;2.57;;;1.80;;
17773;SDS011;9011;33.236;-97.118;2023-02-19T03:49:34;2.40;;;2.20;;
17773;SDS011;9011;33.236;-97.118;2023-02-19T03:52:32;2.40;;;2.00;;
17773;SDS011;9011;33.236;-97.118;2023-02-19T03:55:09;2.40;;;1.80;;
17773;SDS011;9011;33.236;-97.118;2023-02-19T03:57:44;3.53;;;2.20;;
17773;SDS011;9011;33.236;-97.118;2023-02-19T04:00:19;3.27;;;1.70;;
17773;SDS011;9011;33.236;-97.118;2023-02-19T04:02:52;3.53;;;2.27;;
17773;SDS011;9011;33.236;-97.118;2023-02-19T04:05:25;4.83;;;2.23;;
17773;SDS011;9011;33.236;-97.118;2023-02-19T04:07:58;2.67;;;2.47;;
17773;SDS011;9011;33.236;-97.118;2023-02-19T04:10:30;2.90;;;2.10;;
17773;SDS011;9011;33.236;-97.118;2023-02-19T04:12:59;3.60;;;1.90;;
17773;SDS011;9011;33.236;-97.118;2023-02-19T04:15:32;2.47;;;2.20;;
17773;SDS011;9011;33.236;-97.118;2023-02-19T04:18:03;1.83;;;1.70;;
17773;SDS011;9011;33.236;-97.118;2023-02-19T04:20:35;1.97;;;1.80;;
17773;SDS011;9011;33.236;-97.118;2023-02-19T04:23:09;2.70;;;2.20;;
17773;SDS011;9011;33.236;-97.118;2023-02-19T04:25:38;5.33;;;2.37;;
17773;SDS011;9011;33.236;-97.118;2023-02-19T04:28:10;2.30;;;2.10;;
17773;SDS011;9011;33.236;-97.118;2023-02-19T04:30:41;2.57;;;2.17;;
17773;SDS011;9011;33.236;-97.118;2023-02-19T04:33:09;4.63;;;2.50;;
17773;SDS011;9011;33.236;-97.118;2023-02-19T04:35:38;2.50;;;2.20;;
17773;SDS011;9011;33.236;-97.118;2023-02-19T04:38:06;2.07;;;1.87;;
17773;SDS011;9011;33.236;-97.118;2023-02-19T04:40:36;2.50;;;2.10;;
17773;SDS011;9011;33.236;-97.118;2023-02-19T04:43:05;3.67;;;1.80;;
17773;SDS011;9011;33.236;-97.118;2023-02-19T04:45:33;2.93;;;1.97;;
17773;SDS011;9011;33.236;-97.118;2023-02-19T04:48:04;2.53;;;2.10;;
17773;SDS011;9011;33.236;-97.118;2023-02-19T04:50:32;2.30;;;2.03;;
17773;SDS011;9011;33.236;-97.118;2023-02-19T04:53:05;3.83;;;2.37;;
17773;SDS011;9011;33.236;-97.118;2023-02-19T04:55:36;3.70;;;2.10;;
17773;SDS011;9011;33.236;-97.118;2023-02-19T04:58:05;3.77;;;2.23;;
17773;SDS011;9011;33.236;-97.118;2023-02-19T05:00:34;2.53;;;2.00;;
17773;SDS011;9011;33.236;-97.118;2023-02-19T05:03:02;3.87;;;2.20;;
17773;SDS011;9011;33.236;-97.118;2023-02-19T05:05:31;2.40;;;2.03;;
17773;SDS011;9011;33.236;-97.118;2023-02-19T05:08:00;2.10;;;1.90;;
17773;SDS011;9011;33.236;-97.118;2023-02-19T05:10:29;2.27;;;2.07;;
17773;SDS011;9011;33.236;-97.118;2023-02-19T05:12:59;2.20;;;1.97;;
17773;SDS011;9011;33.236;-97.118;2023-02-19T05:15:28;5.43;;;2.30;;
17773;SDS011;9011;33.236;-97.118;2023-02-19T05:17:56;3.10;;;2.37;;
17773;SDS011;9011;33.236;-97.118;2023-02-19T05:20:24;3.17;;;2.07;;
17773;SDS011;9011;33.236;-97.118;2023-02-19T05:22:53;2.07;;;1.93;;
17773;SDS011;9011;33.236;-97.118;2023-02-19T05:25:21;3.57;;;2.00;;
17773;SDS011;9011;33.236;-97.118;2023-02-19T05:27:49;2.90;;;1.90;;
17773;SDS011;9011;33.236;-97.118;2023-02-19T05:30:40;3.07;;;1.90;;
17773;SDS011;9011;33.236;-97.118;2023-02-19T05:33:09;2.83;;;1.80;;
17773;SDS011;9011;33.236;-97.118;2023-02-19T05:35:41;17.47;;;3.03;;
17773;SDS011;9011;33.236;-97.118;2023-02-19T05:38:10;2.90;;;2.20;;
17773;SDS011;9011;33.236;-97.118;2023-02-19T05:40:39;2.00;;;1.80;;
17773;SDS011;9011;33.236;-97.118;2023-02-19T05:43:07;2.60;;;2.10;;
17773;SDS011;9011;33.236;-97.118;2023-02-19T05:45:36;3.23;;;2.10;;
17773;SDS011;9011;33.236;-97.118;2023-02-19T05:48:07;2.27;;;1.80;;
17773;SDS011;9011;33.236;-97.118;2023-02-19T05:50:36;3.17;;;2.27;;
17773;SDS011;9011;33.236;-97.118;2023-02-19T05:53:05;2.73;;;2.00;;
17773;SDS011;9011;33.236;-97.118;2023-02-19T05:55:34;2.90;;;1.90;;
17773;SDS011;9011;33.236;-97.118;2023-02-19T05:58:02;2.23;;;1.97;;
17773;SDS011;9011;33.236;-97.118;2023-02-19T06:00:31;2.60;;;1.90;;
17773;SDS011;9011;33.236;-97.118;2023-02-19T06:03:00;2.57;;;2.00;;
17773;SDS011;9011;33.236;-97.118;2023-02-19T06:05:30;1.90;;;1.80;;
17773;SDS011;9011;33.236;-97.118;2023-02-19T06:07:58;2.93;;;2.00;;
17773;SDS011;9011;33.236;-97.118;2023-02-19T06:10:27;2.10;;;1.90;;
17773;SDS011;9011;33.236;-97.118;2023-02-19T06:12:55;2.60;;;2.13;;
17773;SDS011;9011;33.236;-97.118;2023-02-19T06:15:23;3.60;;;1.90;;
17773;SDS011;9011;33.236;-97.118;2023-02-19T06:17:52;1.80;;;1.70;;
17773;SDS011;9011;33.236;-97.118;2023-02-19T06:20:20;2.20;;;1.80;;
17773;SDS011;9011;33.236;-97.118;2023-02-19T06:22:50;2.47;;;2.07;;
17773;SDS011;9011;33.236;-97.118;2023-02-19T06:25:18;3.80;;;2.00;;
17773;SDS011;9011;33.236;-97.118;2023-02-19T06:27:47;2.83;;;1.83;;
17773;SDS011;9011;33.236;-97.118;2023-02-19T06:30:15;3.07;;;2.00;;
17773;SDS011;9011;33.236;-97.118;2023-02-19T06:32:44;2.77;;;1.90;;
17773;SDS011;9011;33.236;-97.118;2023-02-19T06:35:12;2.07;;;1.63;;
17773;SDS011;9011;33.236;-97.118;2023-02-19T06:37:40;2.27;;;1.63;;
17773;SDS011;9011;33.236;-97.118;2023-02-19T06:40:11;1.73;;;1.60;;
17773;SDS011;9011;33.236;-97.118;2023-02-19T06:42:39;2.47;;;1.90;;
17773;SDS011;9011;33.236;-97.118;2023-02-19T06:45:08;2.00;;;1.70;;
17773;SDS011;9011;33.236;-97.118;2023-02-19T06:47:36;2.73;;;1.70;;
17773;SDS011;9011;33.236;-97.118;2023-02-19T06:50:05;2.47;;;1.50;;
17773;SDS011;9011;33.236;-97.118;2023-02-19T06:52:33;2.53;;;1.90;;
17773;SDS011;9011;33.236;-97.118;2023-02-19T06:55:02;3.43;;;1.80;;
17773;SDS011;9011;33.236;-97.118;2023-02-19T06:57:34;4.43;;;1.53;;
17773;SDS011;9011;33.236;-97.118;2023-02-19T07:00:03;3.10;;;1.83;;
17773;SDS011;9011;33.236;-97.118;2023-02-19T07:02:32;1.93;;;1.50;;
17773;SDS011;9011;33.236;-97.118;2023-02-19T07:05:00;2.17;;;1.60;;
17773;SDS011;9011;33.236;-97.118;2023-02-19T07:07:28;1.97;;;1.70;;
17773;SDS011;9011;33.236;-97.118;2023-02-19T07:09:57;3.47;;;1.83;;
17773;SDS011;9011;33.236;-97.118;2023-02-19T07:12:25;1.20;;;1.10;;
17773;SDS011;9011;33.236;-97.118;2023-02-19T07:14:55;2.63;;;1.90;;
17773;SDS011;9011;33.236;-97.118;2023-02-19T07:17:23;1.83;;;1.63;;
17773;SDS011;9011;33.236;-97.118;2023-02-19T07:19:52;3.03;;;1.50;;
17773;SDS011;9011;33.236;-97.118;2023-02-19T07:22:20;1.33;;;1.23;;
17773;SDS011;9011;33.236;-97.118;2023-02-19T07:24:49;2.73;;;1.60;;
17773;SDS011;9011;33.236;-97.118;2023-02-19T07:27:17;2.03;;;1.70;;
17773;SDS011;9011;33.236;-97.118;2023-02-19T07:29:46;2.13;;;1.57;;
17773;SDS011;9011;33.236;-97.118;2023-02-19T07:32:16;2.60;;;1.80;;
17773;SDS011;9011;33.236;-97.118;2023-02-19T07:34:44;2.90;;;1.70;;
17773;SDS011;9011;33.236;-97.118;2023-02-19T07:37:12;2.33;;;1.60;;
17773;SDS011;9011;33.236;-97.118;2023-02-19T07:39:41;2.20;;;1.40;;
17773;SDS011;9011;33.236;-97.118;2023-02-19T07:42:09;4.30;;;1.60;;
17773;SDS011;9011;33.236;-97.118;2023-02-19T07:44:37;4.00;;;1.60;;
17773;SDS011;9011;33.236;-97.118;2023-02-19T07:47:06;2.43;;;1.60;;
17773;SDS011;9011;33.236;-97.118;2023-02-19T07:49:36;2.93;;;1.90;;
17773;SDS011;9011;33.236;-97.118;2023-02-19T07:52:04;2.83;;;1.57;;
17773;SDS011;9011;33.236;-97.118;2023-02-19T07:54:33;2.40;;;1.50;;
17773;SDS011;9011;33.236;-97.118;2023-02-19T07:57:01;5.40;;;1.67;;
17773;SDS011;9011;33.236;-97.118;2023-02-19T07:59:29;2.50;;;1.70;;
17773;SDS011;9011;33.236;-97.118;2023-02-19T08:01:58;1.90;;;1.43;;
17773;SDS011;9011;33.236;-97.118;2023-02-19T08:04:45;1.60;;;1.20;;
17773;SDS011;9011;33.236;-97.118;2023-02-19T08:07:14;2.13;;;1.50;;
17773;SDS011;9011;33.236;-97.118;2023-02-19T08:09:42;2.27;;;1.40;;
17773;SDS011;9011;33.236;-97.118;2023-02-19T08:12:31;1.77;;;1.43;;
17773;SDS011;9011;33.236;-97.118;2023-02-19T08:15:16;3.10;;;1.50;;
17773;SDS011;9011;33.236;-97.118;2023-02-19T08:17:44;2.40;;;1.77;;
17773;SDS011;9011;33.236;-97.118;2023-02-19T08:20:14;2.13;;;1.30;;
17773;SDS011;9011;33.236;-97.118;2023-02-19T08:22:43;2.57;;;1.53;;
17773;SDS011;9011;33.236;-97.118;2023-02-19T08:25:11;1.67;;;1.30;;
17773;SDS011;9011;33.236;-97.118;2023-02-19T08:27:39;4.03;;;1.60;;
17773;SDS011;9011;33.236;-97.118;2023-02-19T08:30:08;1.50;;;1.30;;
17773;SDS011;9011;33.236;-97.118;2023-02-19T08:32:37;2.90;;;1.70;;
17773;SDS011;9011;33.236;-97.118;2023-02-19T08:35:05;1.33;;;1.20;;
17773;SDS011;9011;33.236;-97.118;2023-02-19T08:37:35;1.70;;;1.60;;
17773;SDS011;9011;33.236;-97.118;2023-02-19T08:40:04;2.87;;;1.70;;
17773;SDS011;9011;33.236;-97.118;2023-02-19T08:42:33;2.00;;;1.80;;
17773;SDS011;9011;33.236;-97.118;2023-02-19T08:45:01;1.93;;;1.27;;
17773;SDS011;9011;33.236;-97.118;2023-02-19T08:47:30;1.93;;;1.40;;
17773;SDS011;9011;33.236;-97.118;2023-02-19T08:50:00;1.70;;;1.60;;
17773;SDS011;9011;33.236;-97.118;2023-02-19T08:52:29;1.27;;;1.17;;
17773;SDS011;9011;33.236;-97.118;2023-02-19T08:54:59;2.10;;;1.50;;
17773;SDS011;9011;33.236;-97.118;2023-02-19T08:57:28;1.90;;;1.23;;
17773;SDS011;9011;33.236;-97.118;2023-02-19T08:59:56;3.90;;;1.40;;
17773;SDS011;9011;33.236;-97.118;2023-02-19T09:02:24;1.57;;;1.20;;
17773;SDS011;9011;33.236;-97.118;2023-02-19T09:04:53;2.17;;;1.27;;
17773;SDS011;9011;33.236;-97.118;2023-02-19T09:07:22;2.57;;;1.30;;
17773;SDS011;9011;33.236;-97.118;2023-02-19T09:09:50;3.63;;;1.30;;
17773;SDS011;9011;33.236;-97.118;2023-02-19T09:12:20;1.13;;;1.03;;
17773;SDS011;9011;33.236;-97.118;2023-02-19T09:14:48;1.70;;;1.53;;
17773;SDS011;9011;33.236;-97.118;2023-02-19T09:17:17;1.57;;;1.43;;
17773;SDS011;9011;33.236;-97.118;2023-02-19T09:19:45;1.93;;;1.40;;
17773;SDS011;9011;33.236;-97.118;2023-02-19T09:22:13;2.00;;;1.47;;
17773;SDS011;9011;33.236;-97.118;2023-02-19T09:24:42;1.43;;;1.30;;
17773;SDS011;9011;33.236;-97.118;2023-02-19T09:27:13;2.23;;;1.27;;
17773;SDS011;9011;33.236;-97.118;2023-02-19T09:29:47;2.13;;;1.40;;
17773;SDS011;9011;33.236;-97.118;2023-02-19T09:32:15;2.23;;;1.40;;
17773;SDS011;9011;33.236;-97.118;2023-02-19T09:34:43;1.83;;;1.30;;
17773;SDS011;9011;33.236;-97.118;2023-02-19T09:37:12;1.70;;;1.37;;
17773;SDS011;9011;33.236;-97.118;2023-02-19T09:39:40;3.10;;;1.50;;
17773;SDS011;9011;33.236;-97.118;2023-02-19T09:42:10;1.93;;;1.10;;
17773;SDS011;9011;33.236;-97.118;2023-02-19T09:44:42;1.50;;;1.20;;
17773;SDS011;9011;33.236;-97.118;2023-02-19T09:47:15;2.13;;;1.50;;
17773;SDS011;9011;33.236;-97.118;2023-02-19T09:49:46;2.23;;;1.50;;
17773;SDS011;9011;33.236;-97.118;2023-02-19T09:52:21;2.63;;;1.37;;
17773;SDS011;9011;33.236;-97.118;2023-02-19T09:54:53;2.10;;;1.20;;
17773;SDS011;9011;33.236;-97.118;2023-02-19T09:57:23;2.20;;;1.80;;
17773;SDS011;9011;33.236;-97.118;2023-02-19T09:59:56;1.90;;;1.63;;
17773;SDS011;9011;33.236;-97.118;2023-02-19T10:02:31;2.10;;;1.53;;
17773;SDS011;9011;33.236;-97.118;2023-02-19T10:05:00;3.73;;;1.60;;
17773;SDS011;9011;33.236;-97.118;2023-02-19T10:07:33;2.90;;;1.43;;
17773;SDS011;9011;33.236;-97.118;2023-02-19T10:10:18;2.57;;;1.30;;
17773;SDS011;9011;33.236;-97.118;2023-02-19T10:12:52;2.13;;;1.27;;
17773;SDS011;9011;33.236;-97.118;2023-02-19T10:15:24;2.50;;;1.27;;
17773;SDS011;9011;33.236;-97.118;2023-02-19T10:17:58;1.70;;;1.60;;
17773;SDS011;9011;33.236;-97.118;2023-02-19T10:20:27;3.90;;;1.47;;
17773;SDS011;9011;33.236;-97.118;2023-02-19T10:22:57;2.27;;;1.40;;
17773;SDS011;9011;33.236;-97.118;2023-02-19T10:25:28;1.70;;;1.30;;
17773;SDS011;9011;33.236;-97.118;2023-02-19T10:27:58;1.50;;;1.37;;
17773;SDS011;9011;33.236;-97.118;2023-02-19T10:30:27;1.77;;;1.17;;
17773;SDS011;9011;33.236;-97.118;2023-02-19T10:33:00;1.43;;;1.17;;
17773;SDS011;9011;33.236;-97.118;2023-02-19T10:35:30;1.20;;;1.10;;
17773;SDS011;9011;33.236;-97.118;2023-02-19T10:38:03;2.43;;;1.37;;
17773;SDS011;9011;33.236;-97.118;2023-02-19T10:40:32;3.07;;;1.30;;
17773;SDS011;9011;33.236;-97.118;2023-02-19T10:43:02;1.30;;;1.10;;
17773;SDS011;9011;33.236;-97.118;2023-02-19T10:45:33;1.20;;;1.10;;
17773;SDS011;9011;33.236;-97.118;2023-02-19T10:48:08;1.43;;;1.03;;
17773;SDS011;9011;33.236;-97.118;2023-02-19T10:50:50;1.70;;;1.10;;
17773;SDS011;9011;33.236;-97.118;2023-02-19T10:53:23;1.67;;;1.03;;
17773;SDS011;9011;33.236;-97.118;2023-02-19T10:56:06;1.90;;;1.50;;
17773;SDS011;9011;33.236;-97.118;2023-02-19T10:58:35;1.23;;;1.03;;
17773;SDS011;9011;33.236;-97.118;2023-02-19T11:01:14;1.50;;;1.07;;
17773;SDS011;9011;33.236;-97.118;2023-02-19T11:03:49;1.47;;;1.10;;
17773;SDS011;9011;33.236;-97.118;2023-02-19T11:06:19;1.23;;;1.03;;
17773;SDS011;9011;33.236;-97.118;2023-02-19T11:08:53;1.33;;;1.00;;
17773;SDS011;9011;33.236;-97.118;2023-02-19T11:11:25;1.13;;;1.03;;
17773;SDS011;9011;33.236;-97.118;2023-02-19T11:14:00;1.03;;;0.97;;
17773;SDS011;9011;33.236;-97.118;2023-02-19T11:16:38;1.30;;;1.03;;
17773;SDS011;9011;33.236;-97.118;2023-02-19T11:19:22;1.13;;;0.90;;
17773;SDS011;9011;33.236;-97.118;2023-02-19T11:21:56;1.57;;;1.20;;
17773;SDS011;9011;33.236;-97.118;2023-02-19T11:24:30;1.00;;;0.90;;
17773;SDS011;9011;33.236;-97.118;2023-02-19T11:27:02;1.80;;;1.03;;
17773;SDS011;9011;33.236;-97.118;2023-02-19T11:29:32;1.30;;;1.20;;
17773;SDS011;9011;33.236;-97.118;2023-02-19T11:35:03;1.30;;;0.80;;
17773;SDS011;9011;33.236;-97.118;2023-02-19T11:37:52;1.87;;;1.10;;
17773;SDS011;9011;33.236;-97.118;2023-02-19T11:40:23;1.20;;;0.90;;
17773;SDS011;9011;33.236;-97.118;2023-02-19T11:43:02;1.47;;;1.00;;
17773;SDS011;9011;33.236;-97.118;2023-02-19T11:45:36;1.77;;;1.00;;
17773;SDS011;9011;33.236;-97.118;2023-02-19T11:48:15;1.87;;;1.00;;
17773;SDS011;9011;33.236;-97.118;2023-02-19T11:51:08;1.67;;;0.80;;
17773;SDS011;9011;33.236;-97.118;2023-02-19T11:53:45;2.73;;;1.37;;
17773;SDS011;9011;33.236;-97.118;2023-02-19T11:56:18;3.77;;;0.90;;
17773;SDS011;9011;33.236;-97.118;2023-02-19T11:58:53;1.63;;;0.87;;
17773;SDS011;9011;33.236;-97.118;2023-02-19T12:01:34;1.27;;;0.93;;
17773;SDS011;9011;33.236;-97.118;2023-02-19T12:04:29;1.37;;;1.20;;
17773;SDS011;9011;33.236;-97.118;2023-02-19T12:07:16;1.00;;;0.90;;
17773;SDS011;9011;33.236;-97.118;2023-02-19T12:09:59;2.60;;;0.93;;
17773;SDS011;9011;33.236;-97.118;2023-02-19T12:15:32;3.50;;;1.30;;
17773;SDS011;9011;33.236;-97.118;2023-02-19T12:18:14;2.57;;;0.90;;
17773;SDS011;9011;33.236;-97.118;2023-02-19T12:20:56;1.93;;;1.30;;
17773;SDS011;9011;33.236;-97.118;2023-02-19T12:23:42;1.30;;;0.90;;
17773;SDS011;9011;33.236;-97.118;2023-02-19T12:26:29;2.50;;;1.47;;
17773;SDS011;9011;33.236;-97.118;2023-02-19T12:32:11;2.03;;;1.20;;
17773;SDS011;9011;33.236;-97.118;2023-02-19T12:35:08;1.23;;;1.07;;
17773;SDS011;9011;33.236;-97.118;2023-02-19T12:37:57;2.40;;;1.10;;
17773;SDS011;9011;33.236;-97.118;2023-02-19T12:40:40;2.50;;;1.40;;
17773;SDS011;9011;33.236;-97.118;2023-02-19T12:43:20;1.23;;;1.13;;
17773;SDS011;9011;33.236;-97.118;2023-02-19T12:45:50;2.20;;;1.20;;
17773;SDS011;9011;33.236;-97.118;2023-02-19T12:48:27;3.50;;;1.20;;
17773;SDS011;9011;33.236;-97.118;2023-02-19T12:50:59;2.80;;;1.07;;
17773;SDS011;9011;33.236;-97.118;2023-02-19T12:53:36;3.80;;;1.80;;
17773;SDS011;9011;33.236;-97.118;2023-02-19T12:56:11;1.50;;;1.40;;
17773;SDS011;9011;33.236;-97.118;2023-02-19T12:58:44;2.23;;;1.07;;
17773;SDS011;9011;33.236;-97.118;2023-02-19T13:01:17;1.50;;;1.30;;
17773;SDS011;9011;33.236;-97.118;2023-02-19T13:03:50;1.03;;;0.93;;
17773;SDS011;9011;33.236;-97.118;2023-02-19T13:06:39;3.03;;;1.10;;
17773;SDS011;9011;33.236;-97.118;2023-02-19T13:09:10;4.87;;;1.30;;
17773;SDS011;9011;33.236;-97.118;2023-02-19T13:11:45;1.20;;;1.10;;
17773;SDS011;9011;33.236;-97.118;2023-02-19T13:14:18;1.57;;;1.20;;
17773;SDS011;9011;33.236;-97.118;2023-02-19T13:16:54;1.63;;;1.00;;
17773;SDS011;9011;33.236;-97.118;2023-02-19T13:19:25;1.67;;;1.10;;
17773;SDS011;9011;33.236;-97.118;2023-02-19T13:21:55;1.90;;;1.03;;
17773;SDS011;9011;33.236;-97.118;2023-02-19T13:24:48;2.27;;;0.90;;
17773;SDS011;9011;33.236;-97.118;2023-02-19T13:27:29;1.10;;;0.93;;
17773;SDS011;9011;33.236;-97.118;2023-02-19T13:33:12;1.50;;;1.00;;
17773;SDS011;9011;33.236;-97.118;2023-02-19T13:36:00;1.63;;;0.90;;
17773;SDS011;9011;33.236;-97.118;2023-02-19T13:38:39;1.33;;;1.00;;
17773;SDS011;9011;33.236;-97.118;2023-02-19T13:44:01;1.60;;;1.17;;
17773;SDS011;9011;33.236;-97.118;2023-02-19T13:46:36;1.83;;;1.07;;
17773;SDS011;9011;33.236;-97.118;2023-02-19T14:04:53;2.93;;;1.10;;
17773;SDS011;9011;33.236;-97.118;2023-02-19T14:25:40;2.00;;;1.00;;
17773;SDS011;9011;33.236;-97.118;2023-02-19T14:28:16;2.70;;;0.90;;
17773;SDS011;9011;33.236;-97.118;2023-02-19T14:30:51;1.67;;;1.20;;
17773;SDS011;9011;33.236;-97.118;2023-02-19T14:33:23;3.07;;;1.37;;
17773;SDS011;9011;33.236;-97.118;2023-02-19T14:35:55;1.37;;;0.90;;
17773;SDS011;9011;33.236;-97.118;2023-02-19T14:38:29;2.20;;;1.03;;
17773;SDS011;9011;33.236;-97.118;2023-02-19T14:41:01;1.13;;;0.90;;
17773;SDS011;9011;33.236;-97.118;2023-02-19T14:43:30;2.33;;;1.00;;
17773;SDS011;9011;33.236;-97.118;2023-02-19T14:46:02;1.90;;;1.13;;
17773;SDS011;9011;33.236;-97.118;2023-02-19T14:48:36;1.60;;;0.90;;
17773;SDS011;9011;33.236;-97.118;2023-02-19T14:51:11;2.37;;;1.07;;
17773;SDS011;9011;33.236;-97.118;2023-02-19T14:53:43;2.20;;;0.80;;
17773;SDS011;9011;33.236;-97.118;2023-02-19T14:56:18;2.60;;;1.30;;
17773;SDS011;9011;33.236;-97.118;2023-02-19T15:01:34;3.13;;;1.10;;
17773;SDS011;9011;33.236;-97.118;2023-02-19T15:04:02;1.37;;;1.00;;
17773;SDS011;9011;33.236;-97.118;2023-02-19T15:06:32;3.70;;;1.40;;
17773;SDS011;9011;33.236;-97.118;2023-02-19T15:09:02;1.10;;;0.80;;
17773;SDS011;9011;33.236;-97.118;2023-02-19T15:11:32;1.67;;;1.13;;
17773;SDS011;9011;33.236;-97.118;2023-02-19T15:14:02;1.17;;;1.00;;
17773;SDS011;9011;33.236;-97.118;2023-02-19T15:16:33;1.20;;;0.97;;
17773;SDS011;9011;33.236;-97.118;2023-02-19T15:19:05;4.57;;;1.10;;
17773;SDS011;9011;33.236;-97.118;2023-02-19T15:21:38;1.43;;;0.90;;
17773;SDS011;9011;33.236;-97.118;2023-02-19T15:24:10;3.70;;;1.20;;
17773;SDS011;9011;33.236;-97.118;2023-02-19T15:26:42;1.33;;;1.00;;
17773;SDS011;9011;33.236;-97.118;2023-02-19T15:29:19;1.90;;;1.10;;
17773;SDS011;9011;33.236;-97.118;2023-02-19T15:31:50;1.10;;;1.00;;
17773;SDS011;9011;33.236;-97.118;2023-02-19T15:34:20;1.60;;;0.90;;
17773;SDS011;9011;33.236;-97.118;2023-02-19T15:36:51;2.17;;;1.03;;
17773;SDS011;9011;33.236;-97.118;2023-02-19T15:39:22;2.63;;;1.13;;
17773;SDS011;9011;33.236;-97.118;2023-02-19T15:41:53;2.13;;;0.83;;
17773;SDS011;9011;33.236;-97.118;2023-02-19T15:44:35;1.43;;;0.80;;
17773;SDS011;9011;33.236;-97.118;2023-02-19T15:47:12;2.77;;;1.17;;
17773;SDS011;9011;33.236;-97.118;2023-02-19T15:49:46;1.67;;;1.30;;
17773;SDS011;9011;33.236;-97.118;2023-02-19T15:52:23;2.30;;;1.47;;
17773;SDS011;9011;33.236;-97.118;2023-02-19T15:55:00;2.85;;;1.10;;
17773;SDS011;9011;33.236;-97.118;2023-02-19T15:57:35;4.43;;;0.93;;